sensor_id;sensor_type;location;lat;lon;timestamp;pressure;altitude;pressure_sealevel;temperature;humidity
52719;BME280;38616;42.140;24.760;2023-07-29T00:01:30;99272.22;;;23.41;32.81
52719;BME280;38616;42.140;24.760;2023-07-29T00:03:55;99264.25;;;23.36;33.21
52719;BME280;38616;42.140;24.760;2023-07-29T00:06:21;99269.25;;;23.27;33.46
52719;BME280;38616;42.140;24.760;2023-07-29T00:08:46;99263.78;;;23.61;32.54
52719;BME280;38616;42.140;24.760;2023-07-29T00:11:11;99267.75;;;23.33;33.31
52719;BME280;38616;42.140;24.760;2023-07-29T00:13:36;99264.13;;;23.29;33.29
52719;BME280;38616;42.140;24.760;2023-07-29T00:16:02;99266.03;;;23.52;32.92
52719;BME280;38616;42.140;24.760;2023-07-29T00:18:27;99251.31;;;23.21;33.68
52719;BME280;38616;42.140;24.760;2023-07-29T00:20:52;99256.06;;;23.47;33.57
52719;BME280;38616;42.140;24.760;2023-07-29T00:23:18;99259.75;;;23.58;33.29
52719;BME280;38616;42.140;24.760;2023-07-29T00:25:46;99266.44;;;23.54;33.29
52719;BME280;38616;42.140;24.760;2023-07-29T00:28:12;99277.47;;;23.50;33.60
52719;BME280;38616;42.140;24.760;2023-07-29T00:30:37;99274.00;;;23.57;33.41
52719;BME280;38616;42.140;24.760;2023-07-29T00:33:02;99273.53;;;23.51;33.96
52719;BME280;38616;42.140;24.760;2023-07-29T00:35:27;99269.31;;;23.61;33.75
52719;BME280;38616;42.140;24.760;2023-07-29T00:37:53;99267.84;;;23.71;33.50
52719;BME280;38616;42.140;24.760;2023-07-29T00:40:19;99279.03;;;23.78;33.50
52719;BME280;38616;42.140;24.760;2023-07-29T00:42:44;99273.22;;;23.90;33.64
52719;BME280;38616;42.140;24.760;2023-07-29T00:45:10;99275.78;;;24.07;33.52
52719;BME280;38616;42.140;24.760;2023-07-29T00:47:35;99274.97;;;24.02;33.56
52719;BME280;38616;42.140;24.760;2023-07-29T00:50:01;99269.59;;;23.83;33.98
52719;BME280;38616;42.140;24.760;2023-07-29T00:52:26;99270.53;;;23.64;34.41
52719;BME280;38616;42.140;24.760;2023-07-29T00:54:51;99276.16;;;23.71;34.80
52719;BME280;38616;42.140;24.760;2023-07-29T00:57:17;99273.53;;;23.82;34.60
52719;BME280;38616;42.140;24.760;2023-07-29T00:59:42;99271.22;;;23.91;34.63
52719;BME280;38616;42.140;24.760;2023-07-29T01:02:08;99262.56;;;23.96;34.68
52719;BME280;38616;42.140;24.760;2023-07-29T01:04:33;99249.84;;;23.91;34.93
52719;BME280;38616;42.140;24.760;2023-07-29T01:11:55;99258.97;;;23.58;35.55
52719;BME280;38616;42.140;24.760;2023-07-29T01:16:55;99269.00;;;23.36;36.42
52719;BME280;38616;42.140;24.760;2023-07-29T01:22:06;99262.84;;;23.50;35.97
52719;BME280;38616;42.140;24.760;2023-07-29T01:24:32;99262.69;;;23.39;36.38
52719;BME280;38616;42.140;24.760;2023-07-29T01:26:58;99265.00;;;23.33;36.30
52719;BME280;38616;42.140;24.760;2023-07-29T01:29:23;99269.88;;;23.43;36.27
52719;BME280;38616;42.140;24.760;2023-07-29T01:31:49;99269.03;;;23.39;36.37
52719;BME280;38616;42.140;24.760;2023-07-29T01:34:39;99260.94;;;23.27;36.60
52719;BME280;38616;42.140;24.760;2023-07-29T01:37:06;99276.56;;;23.39;36.47
52719;BME280;38616;42.140;24.760;2023-07-29T01:39:35;99270.00;;;23.54;36.08
52719;BME280;38616;42.140;24.760;2023-07-29T01:42:02;99269.78;;;23.36;36.55
52719;BME280;38616;42.140;24.760;2023-07-29T01:44:27;99271.25;;;23.26;36.69
52719;BME280;38616;42.140;24.760;2023-07-29T01:46:52;99268.59;;;23.10;37.04
52719;BME280;38616;42.140;24.760;2023-07-29T01:49:17;99267.84;;;23.13;36.99
52719;BME280;38616;42.140;24.760;2023-07-29T01:51:43;99271.81;;;23.39;36.64
52719;BME280;38616;42.140;24.760;2023-07-29T01:54:08;99272.22;;;23.41;36.63
52719;BME280;38616;42.140;24.760;2023-07-29T01:56:33;99273.25;;;23.60;36.35
52719;BME280;38616;42.140;24.760;2023-07-29T01:58:59;99272.25;;;23.45;36.43
52719;BME280;38616;42.140;24.760;2023-07-29T02:01:24;99274.44;;;23.28;36.99
52719;BME280;38616;42.140;24.760;2023-07-29T02:03:49;99277.06;;;22.94;37.63
52719;BME280;38616;42.140;24.760;2023-07-29T02:06:22;99283.56;;;23.06;37.47
52719;BME280;38616;42.140;24.760;2023-07-29T02:08:48;99280.31;;;23.00;37.63
52719;BME280;38616;42.140;24.760;2023-07-29T02:11:13;99280.59;;;22.91;37.71
52719;BME280;38616;42.140;24.760;2023-07-29T02:13:38;99285.75;;;22.93;37.99
52719;BME280;38616;42.140;24.760;2023-07-29T02:16:03;99296.50;;;22.98;37.81
52719;BME280;38616;42.140;24.760;2023-07-29T02:18:29;99297.94;;;22.41;38.95
52719;BME280;38616;42.140;24.760;2023-07-29T02:20:54;99309.56;;;22.08;39.76
52719;BME280;38616;42.140;24.760;2023-07-29T02:23:19;99309.00;;;21.79;40.29
52719;BME280;38616;42.140;24.760;2023-07-29T02:25:44;99305.16;;;21.48;40.97
52719;BME280;38616;42.140;24.760;2023-07-29T02:28:10;99297.66;;;21.84;40.52
52719;BME280;38616;42.140;24.760;2023-07-29T02:30:36;99291.44;;;22.10;39.99
52719;BME280;38616;42.140;24.760;2023-07-29T02:33:01;99289.00;;;22.09;39.88
52719;BME280;38616;42.140;24.760;2023-07-29T02:35:26;99300.41;;;22.04;40.18
52719;BME280;38616;42.140;24.760;2023-07-29T02:37:52;99295.69;;;22.27;39.53
52719;BME280;38616;42.140;24.760;2023-07-29T02:40:17;99292.88;;;22.24;39.62
52719;BME280;38616;42.140;24.760;2023-07-29T02:42:42;99299.63;;;22.46;39.66
52719;BME280;38616;42.140;24.760;2023-07-29T02:45:07;99302.56;;;22.57;39.13
52719;BME280;38616;42.140;24.760;2023-07-29T02:47:35;99305.84;;;22.43;39.35
52719;BME280;38616;42.140;24.760;2023-07-29T02:50:01;99298.28;;;22.40;39.76
52719;BME280;38616;42.140;24.760;2023-07-29T02:52:26;99302.34;;;22.66;39.10
52719;BME280;38616;42.140;24.760;2023-07-29T02:54:51;99303.63;;;22.72;38.81
52719;BME280;38616;42.140;24.760;2023-07-29T02:57:16;99297.22;;;22.45;39.45
52719;BME280;38616;42.140;24.760;2023-07-29T02:59:42;99297.72;;;22.50;39.22
52719;BME280;38616;42.140;24.760;2023-07-29T03:02:07;99294.09;;;22.46;39.27
52719;BME280;38616;42.140;24.760;2023-07-29T03:04:33;99300.78;;;22.45;39.26
52719;BME280;38616;42.140;24.760;2023-07-29T03:06:58;99301.03;;;22.60;39.09
52719;BME280;38616;42.140;24.760;2023-07-29T03:09:24;99303.97;;;22.47;39.47
52719;BME280;38616;42.140;24.760;2023-07-29T03:11:49;99305.72;;;22.36;39.88
52719;BME280;38616;42.140;24.760;2023-07-29T03:14:17;99305.00;;;22.39;39.79
52719;BME280;38616;42.140;24.760;2023-07-29T03:16:42;99306.84;;;22.31;39.70
52719;BME280;38616;42.140;24.760;2023-07-29T03:19:08;99319.09;;;22.10;40.26
52719;BME280;38616;42.140;24.760;2023-07-29T03:21:33;99309.78;;;21.79;40.63
52719;BME280;38616;42.140;24.760;2023-07-29T03:23:58;99308.91;;;21.95;40.52
52719;BME280;38616;42.140;24.760;2023-07-29T03:26:23;99313.47;;;22.26;39.65
52719;BME280;38616;42.140;24.760;2023-07-29T03:28:49;99317.34;;;22.02;40.25
52719;BME280;38616;42.140;24.760;2023-07-29T03:31:14;99312.34;;;21.88;40.67
52719;BME280;38616;42.140;24.760;2023-07-29T03:33:39;99315.41;;;21.83;40.82
52719;BME280;38616;42.140;24.760;2023-07-29T03:36:05;99327.66;;;21.66;41.43
52719;BME280;38616;42.140;24.760;2023-07-29T03:38:30;99323.53;;;21.95;41.10
52719;BME280;38616;42.140;24.760;2023-07-29T03:40:58;99342.44;;;21.74;41.33
52719;BME280;38616;42.140;24.760;2023-07-29T03:43:23;99338.47;;;21.55;42.00
52719;BME280;38616;42.140;24.760;2023-07-29T03:45:48;99331.16;;;21.47;42.27
52719;BME280;38616;42.140;24.760;2023-07-29T03:48:14;99337.84;;;21.62;42.21
52719;BME280;38616;42.140;24.760;2023-07-29T03:50:39;99342.44;;;21.38;42.59
52719;BME280;38616;42.140;24.760;2023-07-29T03:53:04;99342.53;;;21.61;42.02
52719;BME280;38616;42.140;24.760;2023-07-29T03:55:30;99338.47;;;21.55;41.80
52719;BME280;38616;42.140;24.760;2023-07-29T03:57:56;99344.34;;;21.18;42.72
52719;BME280;38616;42.140;24.760;2023-07-29T04:00:21;99353.97;;;21.08;43.02
52719;BME280;38616;42.140;24.760;2023-07-29T04:02:47;99353.66;;;21.29;42.41
52719;BME280;38616;42.140;24.760;2023-07-29T04:05:12;99354.56;;;21.69;41.81
52719;BME280;38616;42.140;24.760;2023-07-29T04:07:37;99361.63;;;21.66;41.99
52719;BME280;38616;42.140;24.760;2023-07-29T04:10:03;99353.38;;;22.06;41.48
52719;BME280;38616;42.140;24.760;2023-07-29T04:12:28;99356.28;;;22.13;41.29
52719;BME280;38616;42.140;24.760;2023-07-29T04:14:54;99357.16;;;21.97;41.67
52719;BME280;38616;42.140;24.760;2023-07-29T04:17:19;99362.44;;;21.67;42.12
52719;BME280;38616;42.140;24.760;2023-07-29T04:19:44;99365.44;;;21.78;42.07
52719;BME280;38616;42.140;24.760;2023-07-29T04:22:09;99363.34;;;22.10;41.65
52719;BME280;38616;42.140;24.760;2023-07-29T04:24:35;99364.16;;;21.91;41.87
52719;BME280;38616;42.140;24.760;2023-07-29T04:27:00;99359.81;;;21.74;42.34
52719;BME280;38616;42.140;24.760;2023-07-29T04:29:25;99365.88;;;21.80;42.40
52719;BME280;38616;42.140;24.760;2023-07-29T04:31:50;99365.44;;;21.78;42.61
52719;BME280;38616;42.140;24.760;2023-07-29T04:34:17;99373.16;;;21.88;42.56
52719;BME280;38616;42.140;24.760;2023-07-29T04:36:42;99363.41;;;22.14;42.04
52719;BME280;38616;42.140;24.760;2023-07-29T04:39:07;99372.00;;;22.09;41.90
52719;BME280;38616;42.140;24.760;2023-07-29T04:41:33;99369.06;;;22.21;41.90
52719;BME280;38616;42.140;24.760;2023-07-29T04:43:58;99369.06;;;22.41;41.51
52719;BME280;38616;42.140;24.760;2023-07-29T04:46:23;99361.78;;;22.33;41.83
52719;BME280;38616;42.140;24.760;2023-07-29T04:48:48;99362.47;;;22.46;41.41
52719;BME280;38616;42.140;24.760;2023-07-29T04:51:14;99363.41;;;22.53;41.18
52719;BME280;38616;42.140;24.760;2023-07-29T04:53:39;99353.97;;;22.58;41.11
52719;BME280;38616;42.140;24.760;2023-07-29T04:56:04;99355.84;;;22.73;41.03
52719;BME280;38616;42.140;24.760;2023-07-29T04:58:30;99358.38;;;22.82;40.90
52719;BME280;38616;42.140;24.760;2023-07-29T05:00:55;99360.84;;;22.87;40.27
52719;BME280;38616;42.140;24.760;2023-07-29T05:03:21;99359.66;;;23.12;40.26
52719;BME280;38616;42.140;24.760;2023-07-29T05:05:46;99363.72;;;23.18;40.24
52719;BME280;38616;42.140;24.760;2023-07-29T05:08:13;99362.16;;;23.21;40.29
52719;BME280;38616;42.140;24.760;2023-07-29T05:10:38;99369.88;;;23.31;39.85
52719;BME280;38616;42.140;24.760;2023-07-29T05:13:04;99379.09;;;23.39;40.09
52719;BME280;38616;42.140;24.760;2023-07-29T05:15:29;99370.72;;;23.62;39.62
52719;BME280;38616;42.140;24.760;2023-07-29T05:17:55;99371.47;;;23.59;39.54
52719;BME280;38616;42.140;24.760;2023-07-29T05:20:20;99370.94;;;23.50;39.80
52719;BME280;38616;42.140;24.760;2023-07-29T05:22:45;99376.19;;;23.58;39.44
52719;BME280;38616;42.140;24.760;2023-07-29T05:25:11;99370.31;;;23.64;39.45
52719;BME280;38616;42.140;24.760;2023-07-29T05:27:36;99371.16;;;23.64;39.14
52719;BME280;38616;42.140;24.760;2023-07-29T05:30:01;99376.41;;;23.73;39.25
52719;BME280;38616;42.140;24.760;2023-07-29T05:32:28;99373.09;;;23.94;38.22
52719;BME280;38616;42.140;24.760;2023-07-29T05:34:54;99374.28;;;23.93;38.64
52719;BME280;38616;42.140;24.760;2023-07-29T05:37:20;99379.47;;;23.37;38.76
52719;BME280;38616;42.140;24.760;2023-07-29T05:39:45;99387.34;;;23.35;38.60
52719;BME280;38616;42.140;24.760;2023-07-29T05:42:10;99384.78;;;23.23;38.60
52719;BME280;38616;42.140;24.760;2023-07-29T05:44:36;99393.38;;;22.94;39.04
52719;BME280;38616;42.140;24.760;2023-07-29T05:47:01;99394.91;;;22.68;39.37
52719;BME280;38616;42.140;24.760;2023-07-29T05:49:27;99398.91;;;22.71;39.79
52719;BME280;38616;42.140;24.760;2023-07-29T05:51:52;99393.25;;;23.10;39.33
52719;BME280;38616;42.140;24.760;2023-07-29T05:54:18;99395.13;;;23.26;39.09
52719;BME280;38616;42.140;24.760;2023-07-29T05:56:43;99385.25;;;23.55;38.55
52719;BME280;38616;42.140;24.760;2023-07-29T05:59:08;99388.66;;;23.45;38.62
52719;BME280;38616;42.140;24.760;2023-07-29T06:01:34;99378.44;;;23.49;38.66
52719;BME280;38616;42.140;24.760;2023-07-29T06:04:00;99388.50;;;23.34;38.31
52719;BME280;38616;42.140;24.760;2023-07-29T06:06:25;99386.72;;;23.45;38.32
52719;BME280;38616;42.140;24.760;2023-07-29T06:08:50;99381.16;;;23.72;38.11
52719;BME280;38616;42.140;24.760;2023-07-29T06:11:15;99381.41;;;23.64;38.20
52719;BME280;38616;42.140;24.760;2023-07-29T06:13:41;99374.13;;;23.79;38.09
52719;BME280;38616;42.140;24.760;2023-07-29T06:16:06;99381.41;;;23.64;38.18
52719;BME280;38616;42.140;24.760;2023-07-29T06:18:32;99383.09;;;23.41;38.40
52719;BME280;38616;42.140;24.760;2023-07-29T06:20:57;99381.53;;;23.44;38.51
52719;BME280;38616;42.140;24.760;2023-07-29T06:23:22;99373.44;;;23.89;37.90
52719;BME280;38616;42.140;24.760;2023-07-29T06:25:48;99393.78;;;23.70;38.17
52719;BME280;38616;42.140;24.760;2023-07-29T06:28:13;99393.16;;;23.53;37.85
52719;BME280;38616;42.140;24.760;2023-07-29T06:30:38;99383.78;;;23.92;37.29
52719;BME280;38616;42.140;24.760;2023-07-29T06:33:03;99388.19;;;24.24;36.82
52719;BME280;38616;42.140;24.760;2023-07-29T06:35:29;99380.19;;;24.18;36.87
52719;BME280;38616;42.140;24.760;2023-07-29T06:37:54;99386.44;;;24.12;36.38
52719;BME280;38616;42.140;24.760;2023-07-29T06:40:19;99384.47;;;24.12;36.23
52719;BME280;38616;42.140;24.760;2023-07-29T06:42:45;99367.63;;;24.32;36.21
52719;BME280;38616;42.140;24.760;2023-07-29T06:45:10;99375.97;;;24.32;36.40
52719;BME280;38616;42.140;24.760;2023-07-29T06:47:36;99373.41;;;24.16;36.31
52719;BME280;38616;42.140;24.760;2023-07-29T06:50:01;99377.69;;;24.44;36.26
52719;BME280;38616;42.140;24.760;2023-07-29T06:52:26;99379.84;;;24.61;35.14
52719;BME280;38616;42.140;24.760;2023-07-29T06:54:51;99376.19;;;24.91;35.29
52719;BME280;38616;42.140;24.760;2023-07-29T06:57:17;99369.84;;;24.91;35.70
52719;BME280;38616;42.140;24.760;2023-07-29T06:59:42;99378.19;;;24.91;34.91
52719;BME280;38616;42.140;24.760;2023-07-29T07:02:07;99376.13;;;24.46;36.31
52719;BME280;38616;42.140;24.760;2023-07-29T07:04:33;99380.84;;;24.80;35.68
52719;BME280;38616;42.140;24.760;2023-07-29T07:06:58;99377.06;;;24.99;35.00
52719;BME280;38616;42.140;24.760;2023-07-29T07:09:23;99365.25;;;25.13;35.00
52719;BME280;38616;42.140;24.760;2023-07-29T07:11:49;99368.63;;;25.41;35.08
52719;BME280;38616;42.140;24.760;2023-07-29T07:14:14;99366.31;;;25.46;35.00
52719;BME280;38616;42.140;24.760;2023-07-29T07:16:39;99361.50;;;25.43;34.95
52719;BME280;38616;42.140;24.760;2023-07-29T07:19:05;99349.56;;;25.43;35.18
52719;BME280;38616;42.140;24.760;2023-07-29T07:21:30;99352.56;;;25.75;34.60
52719;BME280;38616;42.140;24.760;2023-07-29T07:23:57;99352.59;;;25.19;36.17
52719;BME280;38616;42.140;24.760;2023-07-29T07:26:22;99354.13;;;25.13;35.92
52719;BME280;38616;42.140;24.760;2023-07-29T07:28:48;99351.53;;;25.38;35.81
52719;BME280;38616;42.140;24.760;2023-07-29T07:31:13;99348.94;;;25.67;35.34
52719;BME280;38616;42.140;24.760;2023-07-29T07:33:38;99350.56;;;25.72;35.11
52719;BME280;38616;42.140;24.760;2023-07-29T07:36:03;99346.66;;;25.88;34.90
52719;BME280;38616;42.140;24.760;2023-07-29T07:38:29;99338.84;;;26.19;34.75
52719;BME280;38616;42.140;24.760;2023-07-29T07:40:54;99334.00;;;26.08;34.80
52719;BME280;38616;42.140;24.760;2023-07-29T07:43:21;99337.66;;;26.20;34.69
52719;BME280;38616;42.140;24.760;2023-07-29T07:45:46;99328.53;;;26.26;34.57
52719;BME280;38616;42.140;24.760;2023-07-29T07:48:11;99330.91;;;26.32;34.47
52719;BME280;38616;42.140;24.760;2023-07-29T07:50:38;99317.03;;;26.46;34.37
52719;BME280;38616;42.140;24.760;2023-07-29T07:53:03;99327.78;;;26.51;34.21
52719;BME280;38616;42.140;24.760;2023-07-29T07:55:28;99323.41;;;26.61;34.54
52719;BME280;38616;42.140;24.760;2023-07-29T07:57:54;99320.22;;;26.48;34.22
52719;BME280;38616;42.140;24.760;2023-07-29T08:00:20;99311.88;;;26.70;34.05
52719;BME280;38616;42.140;24.760;2023-07-29T08:02:45;99314.25;;;26.72;34.17
52719;BME280;38616;42.140;24.760;2023-07-29T08:05:10;99306.31;;;26.66;34.00
52719;BME280;38616;42.140;24.760;2023-07-29T08:07:36;99299.94;;;26.80;33.86
52719;BME280;38616;42.140;24.760;2023-07-29T08:10:01;99307.88;;;26.38;34.22
52719;BME280;38616;42.140;24.760;2023-07-29T08:12:26;99298.34;;;26.61;34.20
52719;BME280;38616;42.140;24.760;2023-07-29T08:14:51;99288.03;;;26.91;33.86
52719;BME280;38616;42.140;24.760;2023-07-29T08:17:17;99293.53;;;27.27;33.40
52719;BME280;38616;42.140;24.760;2023-07-29T08:19:42;99292.72;;;27.30;32.69
52719;BME280;38616;42.140;24.760;2023-07-29T08:22:07;99289.56;;;27.32;33.25
52719;BME280;38616;42.140;24.760;2023-07-29T08:24:32;99290.69;;;27.45;33.12
52719;BME280;38616;42.140;24.760;2023-07-29T08:26:59;99287.50;;;27.47;32.91
52719;BME280;38616;42.140;24.760;2023-07-29T08:29:24;99281.50;;;27.63;32.71
52719;BME280;38616;42.140;24.760;2023-07-29T08:31:49;99283.06;;;27.71;32.66
52719;BME280;38616;42.140;24.760;2023-07-29T08:34:16;99283.94;;;27.42;32.41
52719;BME280;38616;42.140;24.760;2023-07-29T08:36:41;99280.72;;;27.44;32.54
52719;BME280;38616;42.140;24.760;2023-07-29T08:39:06;99267.94;;;27.65;32.44
52719;BME280;38616;42.140;24.760;2023-07-29T08:41:46;99273.94;;;27.63;32.14
52719;BME280;38616;42.140;24.760;2023-07-29T08:44:23;99272.06;;;27.17;32.46
52719;BME280;38616;42.140;24.760;2023-07-29T08:46:49;99271.16;;;27.45;32.34
52719;BME280;38616;42.140;24.760;2023-07-29T08:49:15;99255.19;;;27.67;31.75
52719;BME280;38616;42.140;24.760;2023-07-29T08:51:44;99258.31;;;27.80;31.29
52719;BME280;38616;42.140;24.760;2023-07-29T08:54:10;99258.59;;;28.00;31.09
52719;BME280;38616;42.140;24.760;2023-07-29T08:56:35;99263.75;;;28.06;31.05
52719;BME280;38616;42.140;24.760;2023-07-29T08:59:02;99252.34;;;27.78;30.74
52719;BME280;38616;42.140;24.760;2023-07-29T09:01:29;99250.31;;;27.82;30.39
52719;BME280;38616;42.140;24.760;2023-07-29T09:03:55;99251.81;;;28.05;30.83
52719;BME280;38616;42.140;24.760;2023-07-29T09:06:21;99247.59;;;28.39;30.45
52719;BME280;38616;42.140;24.760;2023-07-29T09:08:48;99247.06;;;28.55;30.13
52719;BME280;38616;42.140;24.760;2023-07-29T09:11:14;99239.41;;;28.66;30.01
52719;BME280;38616;42.140;24.760;2023-07-29T09:13:42;99238.03;;;28.40;30.17
52719;BME280;38616;42.140;24.760;2023-07-29T09:16:07;99242.25;;;28.59;29.83
52719;BME280;38616;42.140;24.760;2023-07-29T09:18:33;99242.81;;;28.39;30.09
52719;BME280;38616;42.140;24.760;2023-07-29T09:20:59;99236.78;;;28.44;30.34
52719;BME280;38616;42.140;24.760;2023-07-29T09:23:25;99227.84;;;28.64;29.03
52719;BME280;38616;42.140;24.760;2023-07-29T09:25:50;99229.25;;;28.87;28.87
52719;BME280;38616;42.140;24.760;2023-07-29T09:28:25;99227.22;;;28.91;29.76
52719;BME280;38616;42.140;24.760;2023-07-29T09:30:50;99223.72;;;29.18;29.29
52719;BME280;38616;42.140;24.760;2023-07-29T09:33:17;99213.41;;;29.15;28.25
52719;BME280;38616;42.140;24.760;2023-07-29T09:35:46;99211.28;;;29.23;28.61
52719;BME280;38616;42.140;24.760;2023-07-29T09:38:14;99210.03;;;29.27;27.78
52719;BME280;38616;42.140;24.760;2023-07-29T09:40:41;99206.63;;;29.47;27.83
52719;BME280;38616;42.140;24.760;2023-07-29T09:43:06;99201.16;;;29.36;27.16
52719;BME280;38616;42.140;24.760;2023-07-29T09:45:36;99203.13;;;29.35;27.35
52719;BME280;38616;42.140;24.760;2023-07-29T09:48:01;99198.16;;;29.16;26.98
52719;BME280;38616;42.140;24.760;2023-07-29T09:50:28;99196.34;;;29.37;26.00
52719;BME280;38616;42.140;24.760;2023-07-29T09:52:54;99186.72;;;29.41;26.61
52719;BME280;38616;42.140;24.760;2023-07-29T09:55:22;99191.03;;;29.49;25.72
52719;BME280;38616;42.140;24.760;2023-07-29T09:57:57;99197.69;;;29.25;25.77
52719;BME280;38616;42.140;24.760;2023-07-29T10:00:25;99199.97;;;28.99;25.85
52719;BME280;38616;42.140;24.760;2023-07-29T10:02:51;99190.88;;;28.91;25.85
52719;BME280;38616;42.140;24.760;2023-07-29T10:05:17;99190.06;;;28.94;25.96
52719;BME280;38616;42.140;24.760;2023-07-29T10:07:42;99192.47;;;28.92;26.02
52719;BME280;38616;42.140;24.760;2023-07-29T10:10:08;99188.78;;;29.02;26.10
52719;BME280;38616;42.140;24.760;2023-07-29T10:12:34;99187.47;;;29.11;25.45
52719;BME280;38616;42.140;24.760;2023-07-29T10:15:01;99189.44;;;29.14;25.97
52719;BME280;38616;42.140;24.760;2023-07-29T10:17:27;99183.19;;;29.33;26.34
52719;BME280;38616;42.140;24.760;2023-07-29T10:19:53;99177.97;;;29.35;25.62
52719;BME280;38616;42.140;24.760;2023-07-29T10:22:19;99170.72;;;29.42;25.85
52719;BME280;38616;42.140;24.760;2023-07-29T10:24:45;99182.94;;;29.55;25.44
52719;BME280;38616;42.140;24.760;2023-07-29T10:27:12;99177.38;;;29.20;26.23
52719;BME280;38616;42.140;24.760;2023-07-29T10:29:41;99173.59;;;29.38;25.98
52719;BME280;38616;42.140;24.760;2023-07-29T10:32:08;99179.78;;;29.53;25.35
52719;BME280;38616;42.140;24.760;2023-07-29T10:34:35;99165.38;;;29.55;25.46
52719;BME280;38616;42.140;24.760;2023-07-29T10:37:01;99171.56;;;29.70;25.12
52719;BME280;38616;42.140;24.760;2023-07-29T10:39:27;99158.25;;;30.05;24.94
52719;BME280;38616;42.140;24.760;2023-07-29T10:41:56;99149.50;;;30.27;25.01
52719;BME280;38616;42.140;24.760;2023-07-29T10:49:40;99143.03;;;30.30;24.79
52719;BME280;38616;42.140;24.760;2023-07-29T10:52:06;99145.06;;;30.29;24.52
52719;BME280;38616;42.140;24.760;2023-07-29T10:54:31;99137.25;;;30.41;24.39
52719;BME280;38616;42.140;24.760;2023-07-29T10:57:06;99137.19;;;30.44;24.67
52719;BME280;38616;42.140;24.760;2023-07-29T10:59:32;99125.34;;;30.57;24.28
52719;BME280;38616;42.140;24.760;2023-07-29T11:02:00;99123.03;;;30.75;24.03
52719;BME280;38616;42.140;24.760;2023-07-29T11:04:30;99121.59;;;30.87;23.54
52719;BME280;38616;42.140;24.760;2023-07-29T11:14:51;99107.94;;;30.69;23.40
52719;BME280;38616;42.140;24.760;2023-07-29T11:17:18;99103.56;;;30.68;23.98
52719;BME280;38616;42.140;24.760;2023-07-29T11:19:43;99110.38;;;30.67;23.65
52719;BME280;38616;42.140;24.760;2023-07-29T11:22:09;99106.72;;;30.90;23.34
52719;BME280;38616;42.140;24.760;2023-07-29T11:24:35;99111.72;;;30.99;23.15
52719;BME280;38616;42.140;24.760;2023-07-29T11:27:00;99105.84;;;30.93;23.56
52719;BME280;38616;42.140;24.760;2023-07-29T11:29:25;99097.44;;;30.93;23.69
52719;BME280;38616;42.140;24.760;2023-07-29T11:31:51;99094.41;;;31.04;23.59
52719;BME280;38616;42.140;24.760;2023-07-29T11:34:16;99100.00;;;31.04;24.07
52719;BME280;38616;42.140;24.760;2023-07-29T11:36:45;99091.44;;;31.11;23.69
52719;BME280;38616;42.140;24.760;2023-07-29T11:39:10;99091.31;;;31.19;24.03
52719;BME280;38616;42.140;24.760;2023-07-29T11:41:36;99092.03;;;31.23;23.74
52719;BME280;38616;42.140;24.760;2023-07-29T11:44:02;99088.88;;;31.21;23.68
52719;BME280;38616;42.140;24.760;2023-07-29T11:46:27;99082.84;;;31.22;23.91
52719;BME280;38616;42.140;24.760;2023-07-29T11:48:53;99080.59;;;31.34;23.76
52719;BME280;38616;42.140;24.760;2023-07-29T11:51:20;99079.25;;;31.38;23.29
52719;BME280;38616;42.140;24.760;2023-07-29T11:53:45;99070.94;;;31.15;23.17
52719;BME280;38616;42.140;24.760;2023-07-29T11:56:10;99072.16;;;31.14;23.40
52719;BME280;38616;42.140;24.760;2023-07-29T11:58:37;99066.72;;;31.27;23.59
52719;BME280;38616;42.140;24.760;2023-07-29T12:01:03;99061.47;;;31.45;23.64
52719;BME280;38616;42.140;24.760;2023-07-29T12:03:28;99056.03;;;31.71;24.01
52719;BME280;38616;42.140;24.760;2023-07-29T12:05:54;99059.31;;;31.69;23.57
52719;BME280;38616;42.140;24.760;2023-07-29T12:08:19;99062.63;;;31.81;23.22
52719;BME280;38616;42.140;24.760;2023-07-29T12:10:45;99056.16;;;31.67;23.11
52719;BME280;38616;42.140;24.760;2023-07-29T12:13:10;99057.03;;;31.81;23.63
52719;BME280;38616;42.140;24.760;2023-07-29T12:15:37;99053.25;;;31.88;23.41
52719;BME280;38616;42.140;24.760;2023-07-29T12:18:03;99060.47;;;31.89;22.84
52719;BME280;38616;42.140;24.760;2023-07-29T12:20:29;99049.31;;;31.85;22.78
52719;BME280;38616;42.140;24.760;2023-07-29T12:23:00;99048.34;;;31.92;23.07
52719;BME280;38616;42.140;24.760;2023-07-29T12:25:27;99050.00;;;31.89;23.03
52719;BME280;38616;42.140;24.760;2023-07-29T12:27:53;99046.06;;;32.03;22.80
52719;BME280;38616;42.140;24.760;2023-07-29T12:30:22;99030.84;;;32.01;22.88
52719;BME280;38616;42.140;24.760;2023-07-29T12:32:47;99026.63;;;32.09;23.13
52719;BME280;38616;42.140;24.760;2023-07-29T12:35:13;99029.09;;;32.07;22.40
52719;BME280;38616;42.140;24.760;2023-07-29T12:37:39;99026.31;;;31.90;22.07
52719;BME280;38616;42.140;24.760;2023-07-29T12:40:09;99018.88;;;31.83;22.81
52719;BME280;38616;42.140;24.760;2023-07-29T12:42:34;99020.84;;;31.99;22.26
52719;BME280;38616;42.140;24.760;2023-07-29T12:45:00;99023.59;;;31.70;20.94
52719;BME280;38616;42.140;24.760;2023-07-29T12:47:25;99018.28;;;31.76;21.52
52719;BME280;38616;42.140;24.760;2023-07-29T12:49:50;99016.56;;;31.62;21.42
52719;BME280;38616;42.140;24.760;2023-07-29T12:52:16;99015.16;;;31.70;21.42
52719;BME280;38616;42.140;24.760;2023-07-29T12:54:41;99013.06;;;31.91;21.52
52719;BME280;38616;42.140;24.760;2023-07-29T12:57:09;99015.19;;;32.16;21.91
52719;BME280;38616;42.140;24.760;2023-07-29T12:59:34;99022.91;;;32.28;21.69
52719;BME280;38616;42.140;24.760;2023-07-29T13:01:59;99025.63;;;32.32;21.29
52719;BME280;38616;42.140;24.760;2023-07-29T13:04:25;99011.16;;;32.34;20.92
52719;BME280;38616;42.140;24.760;2023-07-29T13:06:50;99015.66;;;32.15;21.35